Time;durP1;ratioP1;P1;durP2;ratioP2;P2;SDS_P1;SDS_P2;PMS_P1;PMS_P2;Temp;Humidity;BMP_temperature;BMP_pressure;BME280_temperature;BME280_humidity;BME280_pressure;Samples;Min_cycle;Max_cycle;Signal;HPM_P1;HPM_P2
2021/04/23 00:00:47;;;;;;;2.60;1.77;;;10.90;1.00;;;;;;5056849;28;20462;-79
2021/04/23 00:03:19;;;;;;;2.97;1.90;;;10.80;1.00;;;;;;5044454;28;20523;-81
2021/04/23 00:05:47;;;;;;;5.00;2.13;;;10.80;1.00;;;;;;5045865;28;20486;-81
2021/04/23 00:08:16;;;;;;;3.27;1.73;;;10.90;1.00;;;;;;5062127;28;20458;-77
2021/04/23 00:10:44;;;;;;;5.00;2.10;;;10.80;1.00;;;;;;5051669;28;20486;-80
2021/04/23 00:13:12;;;;;;;2.60;1.70;;;10.80;1.00;;;;;;5046550;28;20569;-81
2021/04/23 00:15:41;;;;;;;3.57;1.60;;;10.80;1.00;;;;;;5045012;28;20483;-79
2021/04/23 00:18:10;;;;;;;2.53;1.83;;;10.80;1.00;;;;;;5043740;28;20465;-79
2021/04/23 00:20:37;;;;;;;3.83;1.70;;;10.60;1.00;;;;;;5042526;28;20472;-81
2021/04/23 00:23:06;;;;;;;3.80;2.27;;;10.60;1.00;;;;;;5044718;28;20463;-79
2021/04/23 00:25:34;;;;;;;4.17;2.13;;;10.60;1.00;;;;;;5060900;28;20540;-79
2021/04/23 00:28:04;;;;;;;5.40;1.93;;;10.70;1.00;;;;;;5053468;28;20690;-81
2021/04/23 00:30:34;;;;;;;3.57;2.17;;;10.60;1.00;;;;;;5062922;28;20485;-79
2021/04/23 00:33:04;;;;;;;4.07;1.90;;;10.60;1.00;;;;;;5047412;28;20458;-80
2021/04/23 00:35:33;;;;;;;2.60;1.57;;;10.50;1.00;;;;;;5043630;28;20486;-79
2021/04/23 00:38:03;;;;;;;3.20;1.90;;;10.50;1.00;;;;;;5059469;28;20459;-78
2021/04/23 00:40:33;;;;;;;2.50;2.00;;;10.40;1.00;;;;;;5064609;28;20469;-79
2021/04/23 00:43:07;;;;;;;3.73;1.87;;;10.30;1.00;;;;;;5052807;28;20556;-80
2021/04/23 00:45:35;;;;;;;7.17;2.17;;;10.20;1.00;;;;;;5053247;28;20484;-80
2021/04/23 00:48:06;;;;;;;8.40;2.33;;;10.20;1.00;;;;;;5046717;28;20472;-79
2021/04/23 00:50:38;;;;;;;5.20;1.80;;;10.10;1.00;;;;;;5044660;28;20483;-78
2021/04/23 00:53:05;;;;;;;3.77;2.20;;;10.20;1.00;;;;;;5053147;28;20470;-80
2021/04/23 00:55:33;;;;;;;5.83;1.97;;;10.20;1.00;;;;;;5059012;28;20551;-79
2021/04/23 00:58:01;;;;;;;3.90;2.10;;;10.20;1.00;;;;;;5048864;28;20461;-78
2021/04/23 01:00:28;;;;;;;6.33;2.10;;;10.20;1.00;;;;;;5050698;28;20465;-80
2021/04/23 01:02:55;;;;;;;2.10;1.90;;;10.20;1.00;;;;;;5047830;28;20520;-80
2021/04/23 01:05:32;;;;;;;2.10;1.80;;;10.20;1.00;;;;;;5060072;28;20523;-79
2021/04/23 01:07:59;;;;;;;4.47;2.17;;;10.10;1.00;;;;;;5048840;28;20467;-79
2021/04/23 01:10:27;;;;;;;4.50;2.30;;;9.90;1.00;;;;;;5061019;28;20548;-79
2021/04/23 01:12:55;;;;;;;3.90;2.33;;;9.80;1.00;;;;;;5046946;28;20510;-78
2021/04/23 01:15:23;;;;;;;2.00;1.80;;;9.90;1.00;;;;;;5044693;28;20516;-80
2021/04/23 01:17:50;;;;;;;4.83;2.10;;;10.00;1.00;;;;;;5044935;28;20443;-79
2021/04/23 01:20:18;;;;;;;6.90;2.00;;;10.00;1.00;;;;;;5044285;28;21076;-79
2021/04/23 01:22:46;;;;;;;4.07;2.10;;;9.90;1.00;;;;;;5052674;28;20460;-80
2021/04/23 01:25:14;;;;;;;5.30;3.13;;;9.90;1.00;;;;;;5046112;28;20491;-78
2021/04/23 01:27:42;;;;;;;5.70;3.23;;;9.90;1.00;;;;;;5043688;28;20473;-80
2021/04/23 01:30:13;;;;;;;5.33;2.30;;;9.90;1.00;;;;;;5043939;28;20911;-77
2021/04/23 01:32:41;;;;;;;4.03;2.33;;;9.90;1.00;;;;;;5060209;28;20462;-79
2021/04/23 01:35:11;;;;;;;4.73;1.93;;;9.90;1.00;;;;;;5057849;28;20494;-79
2021/04/23 01:37:38;;;;;;;4.33;2.53;;;9.90;1.00;;;;;;5041243;28;20470;-79
2021/04/23 01:40:10;;;;;;;3.17;1.83;;;9.80;1.00;;;;;;5041215;28;20455;-78
2021/04/23 01:42:38;;;;;;;4.13;2.60;;;9.80;1.00;;;;;;5055379;28;20546;-79
2021/04/23 01:45:08;;;;;;;1.87;1.77;;;9.70;1.00;;;;;;5054629;28;20486;-78
2021/04/23 01:47:36;;;;;;;2.67;2.23;;;9.70;1.00;;;;;;5044692;28;21334;-78
2021/04/23 01:50:06;;;;;;;4.23;2.10;;;9.60;1.00;;;;;;5046905;28;20484;-79
2021/04/23 01:52:33;;;;;;;3.80;2.53;;;9.60;1.00;;;;;;5046914;28;20474;-78
2021/04/23 01:55:01;;;;;;;2.77;2.37;;;9.60;1.00;;;;;;5051059;28;20495;-78
2021/04/23 01:57:29;;;;;;;3.90;2.73;;;9.50;1.00;;;;;;5051540;28;20987;-78
2021/04/23 01:59:56;;;;;;;4.43;1.93;;;9.60;1.00;;;;;;5042483;28;20459;-79
2021/04/23 02:02:24;;;;;;;2.87;2.23;;;9.50;1.00;;;;;;5041763;28;20886;-78
2021/04/23 02:04:51;;;;;;;5.00;2.43;;;9.50;1.00;;;;;;5043822;28;20506;-78
2021/04/23 02:07:19;;;;;;;7.03;2.63;;;9.50;1.00;;;;;;5051461;28;20459;-78
2021/04/23 02:09:47;;;;;;;3.93;2.23;;;9.40;1.00;;;;;;5056657;28;20489;-79
2021/04/23 02:12:14;;;;;;;7.13;2.50;;;9.40;1.00;;;;;;5046158;28;20471;-78
2021/04/23 02:14:42;;;;;;;4.10;2.27;;;9.70;1.00;;;;;;5056212;28;20490;-79
2021/04/23 02:17:10;;;;;;;3.50;2.20;;;9.30;1.00;;;;;;5043242;28;20469;-79
2021/04/23 02:19:37;;;;;;;4.33;2.00;;;9.40;1.00;;;;;;5053821;28;20487;-77
2021/04/23 02:22:05;;;;;;;2.43;2.07;;;9.30;1.00;;;;;;5040990;28;20528;-78
2021/04/23 02:24:32;;;;;;;4.27;2.77;;;9.20;1.00;;;;;;5043888;28;20484;-78
2021/04/23 02:26:59;;;;;;;3.33;2.10;;;9.20;1.00;;;;;;5052748;28;20471;-79
2021/04/23 02:29:26;;;;;;;2.37;1.90;;;9.20;1.00;;;;;;5046491;28;20539;-79
2021/04/23 02:31:55;;;;;;;5.60;2.13;;;9.20;1.00;;;;;;5042626;28;20446;-77
2021/04/23 02:34:25;;;;;;;4.63;2.73;;;9.10;1.00;;;;;;5043700;28;21200;-79
2021/04/23 02:36:52;;;;;;;3.40;1.93;;;9.10;1.00;;;;;;5046303;28;20553;-79
2021/04/23 02:39:20;;;;;;;6.57;2.50;;;9.10;1.00;;;;;;5045962;28;20463;-81
2021/04/23 02:41:50;;;;;;;3.00;2.20;;;9.10;1.00;;;;;;5050767;28;20524;-80
2021/04/23 02:44:18;;;;;;;4.00;1.90;;;9.10;1.00;;;;;;5051886;28;20554;-81
2021/04/23 02:46:46;;;;;;;7.13;2.40;;;9.10;1.00;;;;;;5054561;28;20464;-81
2021/04/23 02:49:16;;;;;;;3.63;2.43;;;9.10;1.00;;;;;;5057057;28;20509;-80
2021/04/23 02:51:47;;;;;;;7.33;2.20;;;9.00;1.00;;;;;;5061349;28;20520;-81
2021/04/23 02:54:15;;;;;;;5.20;2.57;;;9.10;1.00;;;;;;5062949;28;21058;-79
2021/04/23 02:56:43;;;;;;;3.63;1.93;;;8.90;1.00;;;;;;5051449;28;20917;-80
2021/04/23 02:59:13;;;;;;;5.13;2.13;;;8.90;1.00;;;;;;5048983;28;20468;-80
2021/04/23 03:01:42;;;;;;;6.53;3.00;;;8.90;1.00;;;;;;5056321;28;20529;-80
2021/04/23 03:04:10;;;;;;;4.87;3.20;;;8.90;1.00;;;;;;5060004;28;20496;-79
2021/04/23 03:06:38;;;;;;;6.27;2.00;;;8.90;1.00;;;;;;5059009;28;20457;-80
2021/04/23 03:09:08;;;;;;;3.97;2.97;;;8.80;1.00;;;;;;5047649;28;20459;-79
2021/04/23 03:11:38;;;;;;;6.30;2.63;;;8.70;1.00;;;;;;5045531;28;21131;-79
2021/04/23 03:14:07;;;;;;;8.40;3.33;;;8.90;1.00;;;;;;5042570;28;20534;-79
2021/04/23 03:16:38;;;;;;;4.33;2.40;;;8.70;1.00;;;;;;5051461;28;21414;-79
2021/04/23 03:19:10;;;;;;;3.53;2.13;;;8.70;1.00;;;;;;5048139;28;20458;-80
2021/04/23 03:21:41;;;;;;;4.43;2.50;;;8.70;1.00;;;;;;5046726;28;20462;-81
2021/04/23 03:24:09;;;;;;;3.53;2.33;;;9.00;1.00;;;;;;5056680;28;20471;-80
2021/04/23 03:26:37;;;;;;;4.40;2.13;;;8.70;1.00;;;;;;5054278;28;20517;-80
2021/04/23 03:29:05;;;;;;;6.73;3.43;;;8.70;1.00;;;;;;5041286;28;20507;-78
2021/04/23 03:31:33;;;;;;;3.80;2.57;;;8.80;1.00;;;;;;5058476;28;20571;-80
2021/04/23 03:34:00;;;;;;;9.63;3.27;;;8.70;1.00;;;;;;5060472;28;20466;-80
2021/04/23 03:36:27;;;;;;;3.03;2.13;;;8.70;1.00;;;;;;5058939;28;20552;-80
2021/04/23 03:38:56;;;;;;;4.03;2.03;;;8.60;1.00;;;;;;5055316;28;20491;-79
2021/04/23 03:41:29;;;;;;;4.17;2.10;;;8.60;1.00;;;;;;5060765;28;20524;-80
2021/04/23 03:43:57;;;;;;;4.43;2.30;;;8.50;1.00;;;;;;5046807;28;20473;-81
2021/04/23 03:46:25;;;;;;;7.30;4.27;;;8.50;1.00;;;;;;5043027;28;20457;-80
2021/04/23 03:48:53;;;;;;;9.30;3.93;;;8.50;1.00;;;;;;5059847;28;20453;-80
2021/04/23 03:51:21;;;;;;;7.30;4.77;;;8.70;1.00;;;;;;5053420;28;20533;-78
2021/04/23 03:53:49;;;;;;;4.33;3.07;;;8.50;1.00;;;;;;5056071;28;20992;-78
2021/04/23 03:56:18;;;;;;;7.10;3.90;;;8.50;1.00;;;;;;5056870;28;20584;-78
2021/04/23 03:58:46;;;;;;;6.40;2.90;;;8.50;1.00;;;;;;5050703;28;20875;-79
2021/04/23 04:01:17;;;;;;;4.20;2.70;;;8.70;1.00;;;;;;5058515;28;20470;-81
2021/04/23 04:03:46;;;;;;;8.17;4.10;;;8.40;1.00;;;;;;5061256;28;20200;-81
2021/04/23 04:06:13;;;;;;;4.07;2.80;;;8.40;1.00;;;;;;5063358;28;21130;-79
2021/04/23 04:08:41;;;;;;;5.77;3.20;;;8.60;1.00;;;;;;5061269;28;20471;-79
2021/04/23 04:11:09;;;;;;;6.10;2.43;;;8.40;1.00;;;;;;5065455;28;20490;-79
2021/04/23 04:13:38;;;;;;;7.97;5.37;;;8.40;1.00;;;;;;5051160;28;20477;-81
2021/04/23 04:16:05;;;;;;;6.37;3.57;;;8.40;1.00;;;;;;5045127;28;20860;-80
2021/04/23 04:18:33;;;;;;;5.83;3.90;;;8.40;1.00;;;;;;5056328;28;20463;-79
2021/04/23 04:21:00;;;;;;;7.13;4.93;;;8.70;1.00;;;;;;5055396;28;20455;-76
2021/04/23 04:23:27;;;;;;;6.40;4.40;;;8.40;1.00;;;;;;5053719;28;21140;-79
2021/04/23 04:25:57;;;;;;;8.30;3.30;;;8.40;1.00;;;;;;5055690;28;20483;-81
2021/04/23 04:28:25;;;;;;;5.67;3.40;;;8.40;1.00;;;;;;5046460;28;20461;-80
2021/04/23 04:30:54;;;;;;;4.00;3.20;;;8.30;1.00;;;;;;5047071;28;21101;-81
2021/04/23 04:33:42;;;;;;;6.87;3.37;;;8.30;1.00;;;;;;5050528;28;20493;-82
2021/04/23 04:36:09;;;;;;;5.63;3.80;;;8.30;1.00;;;;;;5061532;28;20470;-82
2021/04/23 04:38:37;;;;;;;4.90;3.53;;;8.20;1.00;;;;;;5054721;28;20455;-82
2021/04/23 04:41:05;;;;;;;6.00;3.20;;;8.20;1.00;;;;;;5047490;28;20459;-80
2021/04/23 04:43:32;;;;;;;6.63;2.57;;;8.20;1.00;;;;;;5051111;28;20461;-81
2021/04/23 04:46:01;;;;;;;4.73;4.33;;;8.20;1.00;;;;;;5061282;28;20491;-81
2021/04/23 04:48:28;;;;;;;3.50;2.70;;;8.30;1.00;;;;;;5052064;28;20469;-82
2021/04/23 04:50:58;;;;;;;3.03;2.57;;;8.20;1.00;;;;;;5064142;28;20516;-79
2021/04/23 04:53:26;;;;;;;4.70;2.77;;;8.20;1.00;;;;;;5052521;28;20455;-79
2021/04/23 04:55:57;;;;;;;5.33;3.30;;;8.20;1.00;;;;;;5058354;28;20481;-81
2021/04/23 04:58:27;;;;;;;4.67;2.60;;;8.20;1.00;;;;;;5048049;28;20457;-80
2021/04/23 05:00:54;;;;;;;4.40;2.90;;;8.20;1.00;;;;;;5055125;28;20460;-82
2021/04/23 05:03:23;;;;;;;5.20;3.40;;;8.20;1.00;;;;;;5055866;28;20467;-81
2021/04/23 05:05:50;;;;;;;6.90;3.67;;;8.20;1.00;;;;;;5061569;28;20443;-82
2021/04/23 05:08:18;;;;;;;5.77;3.00;;;8.20;1.00;;;;;;5058160;28;20484;-81
2021/04/23 05:10:45;;;;;;;5.07;3.00;;;8.20;1.00;;;;;;5057847;28;20482;-83
2021/04/23 05:13:13;;;;;;;8.40;4.00;;;8.20;1.00;;;;;;5051438;28;21003;-81
2021/04/23 05:15:40;;;;;;;5.40;2.73;;;8.50;1.00;;;;;;5052610;28;20484;-78
2021/04/23 05:18:07;;;;;;;7.97;3.30;;;8.20;1.00;;;;;;5048120;28;20475;-81
2021/04/23 05:20:36;;;;;;;5.00;2.90;;;8.30;1.00;;;;;;5043372;28;21392;-79
2021/04/23 05:23:04;;;;;;;7.37;4.07;;;8.20;1.00;;;;;;5054268;28;20564;-80
2021/04/23 05:25:32;;;;;;;7.17;3.80;;;8.20;1.00;;;;;;5049215;28;20533;-77
2021/04/23 05:28:00;;;;;;;4.47;2.93;;;8.50;1.00;;;;;;5046787;28;20459;-81
2021/04/23 05:30:28;;;;;;;4.32;2.92;;;8.30;1.00;;;;;;5054509;28;20445;-77
2021/04/23 05:32:56;;;;;;;5.03;3.00;;;8.20;1.00;;;;;;5058054;28;20215;-78
2021/04/23 05:35:28;;;;;;;5.37;3.23;;;8.30;1.00;;;;;;5050897;28;20486;-81
2021/04/23 05:37:56;;;;;;;8.57;3.30;;;8.30;1.00;;;;;;5060130;28;20466;-80
2021/04/23 05:40:25;;;;;;;6.43;3.60;;;8.40;1.00;;;;;;5055727;28;20834;-80
2021/04/23 05:42:53;;;;;;;6.30;3.67;;;8.40;1.00;;;;;;5045258;28;20212;-77
2021/04/23 05:45:21;;;;;;;4.30;3.07;;;8.50;1.00;;;;;;5043014;28;20713;-77
2021/04/23 05:47:48;;;;;;;8.57;3.13;;;8.50;1.00;;;;;;5042302;28;20452;-78
2021/04/23 05:50:16;;;;;;;7.00;3.77;;;8.60;1.00;;;;;;5048025;28;20490;-77
2021/04/23 05:52:45;;;;;;;7.80;3.10;;;8.60;1.00;;;;;;5047071;28;20470;-77
2021/04/23 05:55:17;;;;;;;5.37;3.40;;;8.70;1.00;;;;;;5042020;28;21091;-76
2021/04/23 05:57:45;;;;;;;6.43;3.40;;;8.70;1.00;;;;;;5052074;28;20474;-76
2021/04/23 06:00:15;;;;;;;10.80;4.47;;;8.70;1.00;;;;;;5049495;28;20511;-76
2021/04/23 06:02:43;;;;;;;10.00;3.30;;;8.80;1.00;;;;;;5055824;28;20508;-77
2021/04/23 06:05:11;;;;;;;6.70;4.20;;;8.90;1.00;;;;;;5048084;28;20483;-78
2021/04/23 06:07:39;;;;;;;24.97;11.97;;;9.00;1.00;;;;;;5048297;28;20467;-77
2021/04/23 06:10:08;;;;;;;30.73;12.50;;;9.00;1.00;;;;;;5042625;28;20488;-78
2021/04/23 06:12:36;;;;;;;12.30;5.90;;;9.10;1.00;;;;;;5042756;28;20471;-77
2021/04/23 06:15:06;;;;;;;7.20;3.77;;;9.20;1.00;;;;;;5047774;28;20490;-79
2021/04/23 06:17:33;;;;;;;9.63;4.73;;;9.20;1.00;;;;;;5047243;28;20484;-76
2021/04/23 06:20:00;;;;;;;9.00;3.20;;;9.20;1.00;;;;;;5040659;28;20480;-77
2021/04/23 06:22:27;;;;;;;4.23;3.10;;;9.40;1.00;;;;;;5039738;28;20471;-78
2021/04/23 06:24:54;;;;;;;6.33;2.93;;;9.60;1.00;;;;;;5047214;28;20486;-76
2021/04/23 06:27:23;;;;;;;6.20;3.67;;;9.80;1.00;;;;;;5039939;28;20460;-78
2021/04/23 06:29:51;;;;;;;3.57;2.70;;;10.10;1.00;;;;;;5045820;28;20497;-77
2021/04/23 06:32:20;;;;;;;7.90;3.60;;;10.70;1.00;;;;;;5045544;28;21347;-77
2021/04/23 06:34:47;;;;;;;6.07;3.00;;;10.60;1.00;;;;;;5050559;28;20533;-78
2021/04/23 06:37:15;;;;;;;10.67;5.17;;;10.80;1.00;;;;;;5052703;28;20468;-78
2021/04/23 06:39:42;;;;;;;11.20;3.53;;;11.00;1.00;;;;;;5038477;28;20962;-79
2021/04/23 06:42:09;;;;;;;9.43;4.30;;;11.20;1.00;;;;;;5048003;28;20472;-78
2021/04/23 06:44:36;;;;;;;10.93;3.33;;;11.30;1.00;;;;;;5048399;28;21079;-77
2021/04/23 06:47:04;;;;;;;8.03;4.80;;;11.40;1.00;;;;;;5044152;28;21187;-77
2021/04/23 06:49:32;;;;;;;15.30;5.13;;;11.60;1.00;;;;;;5038862;28;20546;-77
2021/04/23 06:52:00;;;;;;;4.20;2.67;;;11.80;1.00;;;;;;5043658;28;20531;-78
2021/04/23 06:54:28;;;;;;;6.30;3.00;;;12.00;1.00;;;;;;5040950;28;20480;-77
2021/04/23 06:56:55;;;;;;;6.60;3.90;;;12.20;1.00;;;;;;5045254;28;20523;-78
2021/04/23 06:59:22;;;;;;;6.20;3.93;;;12.50;1.00;;;;;;5040101;28;20992;-78
2021/04/23 07:01:49;;;;;;;4.13;3.20;;;12.70;1.30;;;;;;5040070;28;20471;-78
2021/04/23 07:04:17;;;;;;;13.93;3.37;;;12.90;2.80;;;;;;5045609;28;20814;-77
2021/04/23 07:06:47;;;;;;;5.10;2.87;;;13.20;3.60;;;;;;5050350;28;20947;-77
2021/04/23 07:09:17;;;;;;;6.80;3.07;;;13.40;2.10;;;;;;5042359;28;20459;-79
2021/04/23 07:11:44;;;;;;;7.40;3.33;;;13.50;2.40;;;;;;5048021;28;20499;-77
2021/04/23 07:14:12;;;;;;;7.53;3.10;;;13.60;2.20;;;;;;5046698;28;21026;-76
2021/04/23 07:16:40;;;;;;;3.37;2.57;;;13.70;1.30;;;;;;5049267;28;21055;-77
2021/04/23 07:19:08;;;;;;;4.30;2.70;;;13.70;1.70;;;;;;5047369;28;20495;-77
2021/04/23 07:21:36;;;;;;;6.57;3.97;;;13.80;1.60;;;;;;5047574;28;20459;-77
2021/04/23 07:24:04;;;;;;;9.43;3.23;;;14.20;5.00;;;;;;5042355;28;20482;-76
2021/04/23 07:26:32;;;;;;;7.37;3.00;;;14.30;5.30;;;;;;5039744;28;20470;-78
2021/04/23 07:28:59;;;;;;;6.07;3.13;;;14.60;7.80;;;;;;5038768;28;20477;-76
2021/04/23 07:31:26;;;;;;;4.97;2.53;;;14.70;7.00;;;;;;5039612;28;20707;-77
2021/04/23 07:33:54;;;;;;;8.73;3.47;;;14.70;8.10;;;;;;5041730;28;20484;-76
2021/04/23 07:36:21;;;;;;;7.00;3.00;;;14.90;8.20;;;;;;5037829;28;20914;-76
2021/04/23 07:38:49;;;;;;;5.00;2.80;;;14.90;8.20;;;;;;5047525;28;20463;-79
2021/04/23 07:41:17;;;;;;;10.37;2.73;;;15.00;8.20;;;;;;5044100;28;20452;-76
2021/04/23 07:43:44;;;;;;;7.80;3.37;;;15.10;10.30;;;;;;5046016;28;20579;-74
2021/04/23 07:46:11;;;;;;;4.40;2.87;;;15.20;9.20;;;;;;5047360;28;20471;-75
2021/04/23 07:48:38;;;;;;;5.63;2.50;;;15.20;8.50;;;;;;5048243;28;20453;-75
2021/04/23 07:51:06;;;;;;;4.70;2.53;;;15.10;8.50;;;;;;5043112;28;20566;-76
2021/04/23 07:53:34;;;;;;;6.27;2.90;;;15.10;6.40;;;;;;5051355;28;20467;-76
2021/04/23 07:56:02;;;;;;;4.20;2.10;;;15.10;6.80;;;;;;5051441;28;20607;-77
2021/04/23 07:58:29;;;;;;;5.07;2.80;;;15.00;6.10;;;;;;5048565;28;20457;-79
2021/04/23 08:00:56;;;;;;;6.73;2.50;;;15.00;5.20;;;;;;5047552;28;21195;-77
2021/04/23 08:03:23;;;;;;;12.40;3.83;;;15.00;6.10;;;;;;5050692;28;20457;-77
2021/04/23 08:05:51;;;;;;;5.00;1.90;;;14.90;3.90;;;;;;5054007;28;20472;-78
2021/04/23 08:08:34;;;;;;;6.17;2.67;;;14.90;4.20;;;;;;5057651;28;20465;-77
2021/04/23 08:11:02;;;;;;;7.10;2.13;;;15.00;3.90;;;;;;5044590;28;20512;-76
2021/04/23 08:13:29;;;;;;;9.27;3.67;;;15.00;3.70;;;;;;5051728;28;22572;-79
2021/04/23 08:15:57;;;;;;;31.00;13.53;;;15.00;3.50;;;;;;5046250;28;21019;-77
2021/04/23 08:18:25;;;;;;;7.00;3.73;;;15.00;4.30;;;;;;5050947;28;20470;-78
2021/04/23 08:20:52;;;;;;;5.77;2.70;;;15.00;4.90;;;;;;5041214;28;20456;-77
2021/04/23 08:23:20;;;;;;;4.40;2.10;;;15.10;5.80;;;;;;5042822;28;20481;-78
2021/04/23 08:25:48;;;;;;;4.23;2.00;;;15.10;4.60;;;;;;5045596;28;20485;-79
2021/04/23 08:28:16;;;;;;;7.60;2.80;;;15.10;4.80;;;;;;5037981;28;20460;-78
2021/04/23 08:30:44;;;;;;;5.47;3.57;;;15.10;5.70;;;;;;5048733;28;20500;-79
2021/04/23 08:33:11;;;;;;;6.37;3.13;;;15.10;4.00;;;;;;5049620;28;20459;-79
2021/04/23 08:35:38;;;;;;;6.10;3.20;;;15.00;2.10;;;;;;5050733;28;20519;-78
2021/04/23 08:38:05;;;;;;;9.30;3.30;;;14.90;1.70;;;;;;5046913;28;20208;-78
2021/04/23 08:40:33;;;;;;;9.80;3.07;;;14.90;2.60;;;;;;5054240;28;20555;-79
2021/04/23 08:43:00;;;;;;;6.90;3.38;;;15.00;2.10;;;;;;5047741;28;20438;-77
2021/04/23 08:45:28;;;;;;;6.80;2.50;;;15.00;2.20;;;;;;5049838;28;20231;-78
2021/04/23 08:47:55;;;;;;;5.33;2.13;;;15.10;2.40;;;;;;5047449;28;20829;-78
2021/04/23 08:50:25;;;;;;;5.10;2.33;;;15.20;5.30;;;;;;5052894;28;20485;-78
2021/04/23 08:52:54;;;;;;;3.37;2.80;;;15.10;1.90;;;;;;5046661;28;20469;-76
2021/04/23 08:55:24;;;;;;;4.20;2.20;;;15.10;1.40;;;;;;5053857;28;20486;-77
2021/04/23 08:58:10;;;;;;;5.60;2.37;;;15.20;14.90;;;;;;5043649;28;21071;-79
2021/04/23 09:00:38;;;;;;;5.13;3.60;;;15.30;4.70;;;;;;5037570;28;20458;-76
2021/04/23 09:03:09;;;;;;;5.80;3.10;;;15.40;5.70;;;;;;5040193;28;20487;-77
2021/04/23 09:05:36;;;;;;;6.00;2.40;;;15.50;6.60;;;;;;5039949;28;20473;-78
2021/04/23 09:08:06;;;;;;;4.23;2.67;;;15.60;8.40;;;;;;5049231;28;20472;-77
2021/04/23 09:10:37;;;;;;;5.70;3.07;;;15.60;7.70;;;;;;5041958;28;20483;-78
2021/04/23 09:13:11;;;;;;;7.20;2.80;;;15.60;5.40;;;;;;5045268;28;21258;-77
2021/04/23 09:15:41;;;;;;;3.53;2.23;;;15.60;5.10;;;;;;5052671;28;20538;-78
2021/04/23 09:18:10;;;;;;;3.57;2.27;;;15.60;6.50;;;;;;5050608;28;21000;-78
2021/04/23 09:20:40;;;;;;;4.17;2.87;;;15.70;6.20;;;;;;5046051;28;20447;-78
2021/04/23 09:23:09;;;;;;;7.37;2.90;;;15.70;6.70;;;;;;5049437;28;20441;-79
2021/04/23 09:25:41;;;;;;;5.67;2.87;;;15.80;6.90;;;;;;5039395;28;21066;-76
2021/04/23 09:28:09;;;;;;;5.83;2.83;;;15.80;7.00;;;;;;5054613;28;20446;-77
2021/04/23 09:30:36;;;;;;;8.43;3.47;;;15.70;5.30;;;;;;5049426;28;20489;-76
2021/04/23 09:33:21;;;;;;;6.80;3.07;;;15.70;5.60;;;;;;5056049;28;20474;-81
2021/04/23 09:35:48;;;;;;;6.80;2.60;;;15.90;5.70;;;;;;5045486;28;20490;-78
2021/04/23 09:38:16;;;;;;;5.33;2.77;;;15.70;7.50;;;;;;5046455;28;20477;-79
2021/04/23 09:40:44;;;;;;;5.67;3.47;;;15.80;5.90;;;;;;5052415;28;21219;-79
2021/04/23 09:43:11;;;;;;;5.83;3.20;;;15.80;5.90;;;;;;5049900;28;20463;-78
2021/04/23 09:45:49;;;;;;;6.70;2.53;;;15.80;5.30;;;;;;5049754;28;20494;-78
2021/04/23 09:48:21;;;;;;;5.87;2.90;;;15.80;5.40;;;;;;5049092;28;20920;-77
2021/04/23 09:50:50;;;;;;;4.57;2.40;;;15.80;6.60;;;;;;5045622;28;20476;-78
2021/04/23 09:53:18;;;;;;;6.60;3.03;;;15.90;10.20;;;;;;5045985;28;20450;-78
2021/04/23 09:55:45;;;;;;;10.73;3.83;;;16.10;9.00;;;;;;5051066;28;20539;-79
2021/04/23 09:58:17;;;;;;;9.73;3.80;;;16.20;8.50;;;;;;5041995;28;21026;-78
2021/04/23 10:00:46;;;;;;;4.60;2.80;;;16.30;9.30;;;;;;5052538;28;20520;-79
2021/04/23 10:03:13;;;;;;;6.57;3.73;;;16.20;8.90;;;;;;5048389;28;20459;-75
2021/04/23 10:05:44;;;;;;;6.37;3.03;;;16.30;10.90;;;;;;5049396;28;20518;-78
2021/04/23 10:08:12;;;;;;;5.83;3.50;;;16.40;11.20;;;;;;5044913;28;20502;-79
2021/04/23 10:10:51;;;;;;;8.70;4.50;;;16.40;9.90;;;;;;5050008;28;20477;-77
2021/04/23 10:13:27;;;;;;;5.13;3.10;;;16.40;9.40;;;;;;5051174;28;20458;-76
2021/04/23 10:15:55;;;;;;;8.37;3.83;;;16.50;10.40;;;;;;5041404;28;20469;-76
2021/04/23 10:18:22;;;;;;;6.97;3.40;;;16.50;10.20;;;;;;5034293;28;20596;-80
2021/04/23 10:20:52;;;;;;;5.83;3.13;;;16.40;10.10;;;;;;5047687;28;20458;-77
2021/04/23 10:23:22;;;;;;;6.27;3.00;;;16.50;10.20;;;;;;5048512;28;20446;-77
2021/04/23 10:25:51;;;;;;;6.10;2.73;;;16.50;10.70;;;;;;5058028;28;20479;-76
2021/04/23 10:28:21;;;;;;;5.90;2.73;;;16.60;10.90;;;;;;5040467;28;20523;-73
2021/04/23 10:30:50;;;;;;;5.93;2.97;;;16.70;11.80;;;;;;5052672;28;21027;-73
2021/04/23 10:33:20;;;;;;;5.33;3.07;;;16.90;16.90;;;;;;5039830;28;20465;-76
2021/04/23 10:35:49;;;;;;;7.50;3.83;;;17.00;18.20;;;;;;5042594;28;20499;-75
2021/04/23 10:38:21;;;;;;;5.27;3.50;;;17.00;15.90;;;;;;5049344;28;20459;-74
2021/04/23 10:40:53;;;;;;;3.60;2.97;;;17.00;15.40;;;;;;5048350;28;21031;-75
2021/04/23 10:43:21;;;;;;;3.73;3.03;;;17.10;15.30;;;;;;5043351;28;20463;-74
2021/04/23 10:46:00;;;;;;;5.50;3.70;;;17.00;13.90;;;;;;5044141;28;21083;-75
2021/04/23 10:48:30;;;;;;;6.33;3.50;;;16.90;12.00;;;;;;5046854;28;20877;-76
2021/04/23 10:50:59;;;;;;;7.40;3.83;;;16.90;13.30;;;;;;5043292;28;20531;-76
2021/04/23 10:53:44;;;;;;;8.27;4.10;;;17.00;13.40;;;;;;5042052;28;20452;-76
2021/04/23 10:56:24;;;;;;;6.37;3.60;;;17.10;13.50;;;;;;5048735;28;21039;-77
2021/04/23 10:58:52;;;;;;;5.27;3.70;;;17.10;12.20;;;;;;5045065;28;20494;-78
2021/04/23 11:01:26;;;;;;;7.63;4.83;;;17.10;12.90;;;;;;5041972;28;20451;-77
2021/04/23 11:04:10;;;;;;;5.87;3.10;;;17.10;11.90;;;;;;5046504;28;20450;-76
2021/04/23 11:06:40;;;;;;;6.60;3.50;;;17.20;14.00;;;;;;5046004;28;20819;-77
2021/04/23 11:09:20;;;;;;;6.57;4.05;;;17.20;15.00;;;;;;5049898;28;20438;-77
2021/04/23 11:12:15;;;;;;;5.80;3.80;;;17.30;15.90;;;;;;5057319;28;20530;-78
2021/04/23 11:14:45;;;;;;;5.82;3.45;;;17.40;15.00;;;;;;5040608;28;20353;-78
2021/04/23 11:17:25;;;;;;;4.60;3.47;;;17.40;15.00;;;;;;5045184;28;20677;-78
2021/04/23 11:19:54;;;;;;;6.03;4.40;;;17.40;13.90;;;;;;5052936;28;21553;-77
2021/04/23 11:22:22;;;;;;;7.40;3.40;;;17.50;14.90;;;;;;5050718;28;20461;-78
2021/04/23 11:25:09;;;;;;;6.10;3.40;;;17.50;15.30;;;;;;5046888;28;21330;-78
2021/04/23 11:28:09;;;;;;;8.10;3.57;;;17.50;12.70;;;;;;5044652;28;20847;-79
2021/04/23 11:30:56;;;;;;;5.53;3.10;;;17.50;13.70;;;;;;5049709;28;20503;-80
2021/04/23 11:33:47;;;;;;;10.40;3.70;;;17.60;13.50;;;;;;5044017;28;21131;-78
2021/04/23 11:36:26;;;;;;;5.00;3.30;;;17.60;15.50;;;;;;5049100;28;20837;-79
2021/04/23 11:39:07;;;;;;;6.60;3.90;;;17.70;15.50;;;;;;5049781;28;21277;-80
2021/04/23 11:41:36;;;;;;;9.17;3.97;;;17.70;14.80;;;;;;5045626;28;21047;-77
2021/04/23 11:44:38;;;;;;;7.10;3.57;;;17.80;14.30;;;;;;5047213;28;20487;-77
2021/04/23 11:47:05;;;;;;;7.30;4.20;;;17.40;9.80;;;;;;5040788;28;20456;-76
2021/04/23 11:49:33;;;;;;;4.37;3.80;;;17.30;8.80;;;;;;5045448;28;21003;-77
2021/04/23 11:52:02;;;;;;;6.50;3.23;;;17.20;10.50;;;;;;5046351;28;20488;-77
2021/04/23 11:54:34;;;;;;;4.40;2.90;;;17.40;11.80;;;;;;5040304;28;20493;-78
2021/04/23 11:57:05;;;;;;;5.50;3.43;;;17.60;13.80;;;;;;5046670;28;20462;-77
2021/04/23 11:59:33;;;;;;;11.40;4.10;;;17.70;14.40;;;;;;5051880;28;20531;-77
2021/04/23 12:02:00;;;;;;;9.00;4.47;;;17.80;16.30;;;;;;5042764;28;20455;-76
2021/04/23 12:04:44;;;;;;;5.30;2.73;;;17.90;15.30;;;;;;5049135;28;20497;-77
2021/04/23 12:07:13;;;;;;;4.77;3.43;;;17.90;14.00;;;;;;5052678;28;20464;-77
2021/04/23 12:09:42;;;;;;;8.70;4.20;;;17.90;13.90;;;;;;5040160;28;20911;-76
2021/04/23 12:12:12;;;;;;;4.50;3.10;;;17.90;13.10;;;;;;5043176;28;20579;-77
2021/04/23 12:14:42;;;;;;;6.40;3.90;;;17.80;12.10;;;;;;5042465;28;21505;-76
2021/04/23 12:17:09;;;;;;;7.53;3.37;;;17.70;9.80;;;;;;5046376;28;20453;-77
2021/04/23 12:19:37;;;;;;;5.97;3.30;;;17.70;8.70;;;;;;5044718;28;20458;-77
2021/04/23 12:22:05;;;;;;;4.80;2.93;;;17.70;8.80;;;;;;5042437;28;20452;-78
2021/04/23 12:24:32;;;;;;;4.63;3.47;;;17.70;11.30;;;;;;5051397;28;21386;-80
2021/04/23 12:26:59;;;;;;;4.67;3.27;;;17.80;14.90;;;;;;5050903;28;20996;-78
2021/04/23 12:29:27;;;;;;;5.60;3.43;;;18.00;16.80;;;;;;5056487;28;20469;-77
2021/04/23 12:31:54;;;;;;;3.87;3.07;;;18.10;18.80;;;;;;5053469;28;20934;-77
2021/04/23 12:34:22;;;;;;;6.50;3.00;;;18.20;17.70;;;;;;5049574;28;20992;-77
2021/04/23 12:36:52;;;;;;;7.53;3.70;;;18.20;18.10;;;;;;5052444;28;21337;-77
2021/04/23 12:39:22;;;;;;;6.87;3.63;;;18.20;14.90;;;;;;5045703;28;20957;-76
2021/04/23 12:41:51;;;;;;;5.40;2.90;;;18.20;17.20;;;;;;5049586;28;20449;-77
2021/04/23 12:44:21;;;;;;;5.67;2.70;;;18.30;19.00;;;;;;5049358;28;20491;-77
2021/04/23 12:46:51;;;;;;;3.50;2.87;;;18.40;18.30;;;;;;5046821;28;20992;-76
2021/04/23 12:49:20;;;;;;;9.60;3.43;;;18.50;20.80;;;;;;5051282;28;20498;-77
2021/04/23 12:51:51;;;;;;;6.13;3.60;;;18.50;19.00;;;;;;5046399;28;20853;-77
2021/04/23 12:54:21;;;;;;;7.20;3.27;;;18.50;19.80;;;;;;5053003;28;20497;-76
2021/04/23 12:56:51;;;;;;;4.20;2.90;;;18.50;20.10;;;;;;5057106;28;20832;-77
2021/04/23 12:59:42;;;;;;;6.37;3.00;;;18.50;17.90;;;;;;5048340;28;20956;-77
2021/04/23 13:02:13;;;;;;;8.53;3.33;;;18.60;18.10;;;;;;5051589;28;20530;-77
2021/04/23 13:04:43;;;;;;;6.87;3.27;;;18.60;18.40;;;;;;5043477;28;21100;-76
2021/04/23 13:07:13;;;;;;;5.80;3.72;;;18.70;19.60;;;;;;5045070;28;20447;-78
2021/04/23 13:09:41;;;;;;;8.20;3.40;;;18.70;19.50;;;;;;5052963;28;20201;-77